CL Seven — ONJE — position and weather

sailwx.info

Track history (hours):
 
Tides and Currents Weather Stations Pressure Air Temp Water Temp Dewpoint Dewpoint Depression Visibility Wind Speed Wind Dir Waves Ship Positions

CL Seven

Last reported at 2018-Jul-06 07:16 UTC. Time now 2018-Jul-17 04:12 UTC.
Position N 01°21' E 103°16'.
Warning: this ship's position is 10 days out of date.

Length 183 m; draft 9 m.

Type: Ship. MMSI: 205728000.

Date/timePositionNaut miles runAvg speedWind from/ knotsBaromVisibWave heightAir tempDewpointWater temp
2018-Jul-06 07:16N 01°21' E 103°16'511.9
2018-Jul-06 06:51N 01°18' E 103°21'411.8
2018-Jul-06 06:30N 01°16' E 103°24'611.7
2018-Jul-06 05:59N 01°13' E 103°30'712.4
2018-Jul-06 05:28N 01°11' E 103°36'612.7
2018-Jul-06 05:00N 01°10' E 103°41'5 9.4
2018-Jul-06 04:30N 01°09' E 103°46'510.1
2018-Jul-06 04:00N 01°12' E 103°51'5 9.2
2018-Jul-06 03:30N 01°14' E 103°55'510.6
2018-Jul-06 02:59N 01°16' E 103°60'3 6.8
2018-Jul-06 02:30N 01°17' E 104°03'1 2.8
2018-Jul-06 01:58N 01°18' E 104°04'0 0.1
2018-Jul-06 01:19N 01°18' E 104°04'0 0.0
2018-Jul-06 00:49N 01°18' E 104°04'0 0.0
2018-Jul-06 00:28N 01°18' E 104°04'0 0.0
2018-Jul-05 23:54N 01°18' E 104°04'0 0.0
2018-Jul-05 23:13N 01°18' E 104°04'0 0.1
2018-Jul-05 22:52N 01°18' E 104°04'0 0.0
2018-Jul-05 22:28N 01°18' E 104°04'0 0.1
2018-Jul-05 21:46N 01°18' E 104°04'0 0.0
2018-Jul-05 21:22N 01°18' E 104°04'0 0.0
2018-Jul-05 20:49N 01°18' E 104°04'0 0.1
2018-Jul-05 20:10N 01°18' E 104°04'0 0.1
2018-Jul-05 19:52N 01°18' E 104°04'0 0.1
2018-Jul-05 19:25N 01°18' E 104°04'0 0.1
2018-Jul-05 18:57N 01°18' E 104°04'0 0.0
2018-Jul-05 18:10N 01°18' E 104°04'0 0.1
2018-Jul-05 17:52N 01°18' E 104°04'0 0.2
2018-Jul-05 17:27N 01°18' E 104°03'0 0.1
2018-Jul-05 16:34N 01°18' E 104°04'0 1.6
2018-Jul-05 16:30N 01°18' E 104°04'2 4.3
2018-Jul-05 15:59N 01°18' E 104°06'3 6.3
2018-Jul-05 15:30N 01°18' E 104°09'4 7.2
2018-Jul-05 14:59N 01°18' E 104°13'5 9.0
2018-Jul-05 14:24N 01°19' E 104°18'1212.6
2018-Jul-05 13:30N 01°26' E 104°27'711.9
2018-Jul-05 12:56N 01°30' E 104°32'  
Track history (hours):
 
Tides and Currents Weather Stations Pressure Air Temp Water Temp Dewpoint Dewpoint Depression Visibility Wind Speed Wind Dir Waves Ship Positions

CL Seven

Last reported at 2018-Jul-06 07:16 UTC. Time now 2018-Jul-17 04:12 UTC.
Position N 01°21' E 103°16'.
Warning: this ship's position is 10 days out of date.

Length 183 m; draft 9 m.

Type: Ship. MMSI: 205728000.

Date/timePositionNaut miles runAvg speedWind from/ knotsBaromVisibWave heightAir tempDewpointWater temp
2018-Jul-06 07:16N 01°21' E 103°16'511.9
2018-Jul-06 06:51N 01°18' E 103°21'411.8
2018-Jul-06 06:30N 01°16' E 103°24'611.7
2018-Jul-06 05:59N 01°13' E 103°30'712.4
2018-Jul-06 05:28N 01°11' E 103°36'612.7
2018-Jul-06 05:00N 01°10' E 103°41'5 9.4
2018-Jul-06 04:30N 01°09' E 103°46'510.1
2018-Jul-06 04:00N 01°12' E 103°51'5 9.2
2018-Jul-06 03:30N 01°14' E 103°55'510.6
2018-Jul-06 02:59N 01°16' E 103°60'3 6.8
2018-Jul-06 02:30N 01°17' E 104°03'1 2.8
2018-Jul-06 01:58N 01°18' E 104°04'0 0.1
2018-Jul-06 01:19N 01°18' E 104°04'0 0.0
2018-Jul-06 00:49N 01°18' E 104°04'0 0.0
2018-Jul-06 00:28N 01°18' E 104°04'0 0.0
2018-Jul-05 23:54N 01°18' E 104°04'0 0.0
2018-Jul-05 23:13N 01°18' E 104°04'0 0.1
2018-Jul-05 22:52N 01°18' E 104°04'0 0.0
2018-Jul-05 22:28N 01°18' E 104°04'0 0.1
2018-Jul-05 21:46N 01°18' E 104°04'0 0.0
2018-Jul-05 21:22N 01°18' E 104°04'0 0.0
2018-Jul-05 20:49N 01°18' E 104°04'0 0.1
2018-Jul-05 20:10N 01°18' E 104°04'0 0.1
2018-Jul-05 19:52N 01°18' E 104°04'0 0.1
2018-Jul-05 19:25N 01°18' E 104°04'0 0.1
2018-Jul-05 18:57N 01°18' E 104°04'0 0.0
2018-Jul-05 18:10N 01°18' E 104°04'0 0.1
2018-Jul-05 17:52N 01°18' E 104°04'0 0.2
2018-Jul-05 17:27N 01°18' E 104°03'0 0.1
2018-Jul-05 16:34N 01°18' E 104°04'0 1.6
2018-Jul-05 16:30N 01°18' E 104°04'2 4.3
2018-Jul-05 15:59N 01°18' E 104°06'3 6.3
2018-Jul-05 15:30N 01°18' E 104°09'4 7.2
2018-Jul-05 14:59N 01°18' E 104°13'5 9.0
2018-Jul-05 14:24N 01°19' E 104°18'1212.6
2018-Jul-05 13:30N 01°26' E 104°27'711.9
2018-Jul-05 12:56N 01°30' E 104°32'  

Dump ship's entire track history